Imperial, MO (63052)

12:54 PM CDT on April 23, 2017 (GMT -0500)
Kimmswick | | Change Station

Elev 411 ft 38.37 °N, 90.36 °W | Updated 9 seconds ago

Clear
Clear
69.8 °F
Feels Like 69.8 °F
N
1.8
Wind Variable Wind from ESE
Gusts 8.7 mph

Today
High -- | Low -- °F
--% Chance of Precip.
Yesterday
High -- | Low -- °F
Precip. -- in
Pressure 30.09 in
Visibility 10.0 miles
Clouds Clear
Dew Point 49 °F
Humidity 48%
Rainfall 0.00 in
Snow Depth Not available.
6:14 AM 7:45 PM
Waning Crescent, 10% visible
METAR KCPS 231653Z 03012KT 10SM CLR 18/01 A3008 RMK AO2 SLP187 T01830006
Pressure 30.09 in
Visibility 10.0 miles
Clouds Clear
Dew Point 49 °F
Humidity 48%
Rainfall 0.00 in
Snow Depth Not available.
6:14 AM 7:45 PM
Waning Crescent, 10% visible
METAR KCPS 231653Z 03012KT 10SM CLR 18/01 A3008 RMK AO2 SLP187 T01830006

Get Severe Weather Alerts

Thanks for signing up!

Be on the lookout for a verification email in your inbox.

You'll start receiving the daily forecast at 8 AM.

×

10-Day Weather Forecast

Almanac

Astronomy

Apr. 23, 2017 Rise Set
Actual Time
Civil Twilight
Nautical Twilight
Astronomical Twilight
Moon
Length of Visible Light
Length of Day
Tomorrow will be .
, % of the Moon is Illuminated

Today's Extremes

State Highs State Lows

Community

WunderPhotos

WunderBlog® & News

Nearby

Air Quality

  Air Quality AQ Index Pollutant
Not available.

Snow Depth

Station Depth Elevation

Earthquake Activity

City Distance Mag. Time & Date
Minimum magnitude displayed is 2.5.

Coastal Water Temperatures

Place Temperature

Stations

Nearby Weather Stations

Station Location Temp. Windchill Dew Point Humidity Wind Precip. Elev Updated Type
                   

Watches & Warnings

There are currently no watches in effect.